Accueil
METAR-TAF:

METAR-TAF

Aéroports :

Laupheim, Allemagne

latitude: 48-13N, longitude: 009-55E, altitude: 538 m

Observation

Le bulletin a été fait il y a 51 minutes, à 16:20 UTC
Vent 7 kt de est
Température -3°C
Humidité 74%
Pression 1021 hPa
Visibilité 10 km ou plus
Nuages fragmentés à une hauteur de 1600 ft

METAR: ETHL 151620Z 09007KT 9999 BKN016 M03/M07 Q1021 WHT

Heure: 18:11 (17:11 UTC)

Prévision

Le bulletin a été fait il y a 30 heures et 42 minutes, à 10:29 UTC
Prévision valable du 14 à 09 UTC au 14 à 18 UTC
Vent 7 kt de est/nord-est
Visibilité: 1100 m
Ciel couvert à une hauteur de 1000 ft

TAF: ETHL 141029Z 1409/1418 07007KT 9999 NSW OVC010 CANCEL 1100

Observations et prévisions météorologiques de plus de 4000 aéroports (messages METAR et TAF).

Les stations disponibles sont représentées par des disques jaunes et rouges sur la carte.

Passer la souris dessus pour voir le nom de la station.

Cliquer dessus pour voir les observations et prévisions météorologiques.

Pour changer de carte: cliquez sur les boutons verts avec une croix noire pour zoomer, sur le bouton vert avec un tiret pour effectuer un zoom arrière, ou sur les flèches vertes pour les cartes adjacentes.


METAR-TAF: